DLH16PY EDDF-EDDH
Flight info
| Callsign | DLH16PY |
|---|---|
| Flight time | 0h 47m |
| Altitude | 35000 |
| Route | MARUN3W/25C MARUN Y150 TOLGI DCT SAS/N0428F340 P605 NOLGO NOLGO3P |
| Aircraft | A20N/M-SDE2E3FGHIRWXY/LB1 |
Departure
| Time | 2026-05-03 20:47 |
|---|---|
| Airport | Frankfurt Main Airport (EDDF) |
Arrival
| Time | 2026-05-03 21:35 |
|---|---|
| Airport | Hamburg Helmut Schmidt Airport (EDDH) |
| Time | Latitude | Longitude | Altitude | Speed | Heading |
|---|---|---|---|---|---|
| 2026-05-03 20:37 | 50.04517 | 8.56381 | 359 ft | 0 kts | 251° |
| 2026-05-03 20:39 | 50.04516 | 8.56380 | 359 ft | 0 kts | 251° |
| 2026-05-03 20:39 | 50.04510 | 8.56353 | 358 ft | 4 kts | 249° |
| 2026-05-03 20:39 | 50.04493 | 8.56283 | 358 ft | 9 kts | 250° |
| 2026-05-03 20:39 | 50.04467 | 8.56176 | 357 ft | 11 kts | 252° |
| 2026-05-03 20:40 | 50.04444 | 8.56071 | 357 ft | 5 kts | 246° |
| 2026-05-03 20:40 | 50.04429 | 8.56036 | 357 ft | 2 kts | 230° |
| 2026-05-03 20:40 | 50.04410 | 8.56025 | 357 ft | 3 kts | 186° |
| 2026-05-03 20:40 | 50.04376 | 8.56035 | 357 ft | 7 kts | 160° |
| 2026-05-03 20:41 | 50.04326 | 8.56064 | 356 ft | 4 kts | 159° |
| 2026-05-03 20:41 | 50.04307 | 8.56076 | 356 ft | 3 kts | 157° |
| 2026-05-03 20:41 | 50.04288 | 8.56121 | 356 ft | 7 kts | 98° |
| 2026-05-03 20:41 | 50.04282 | 8.56208 | 356 ft | 8 kts | 127° |
| 2026-05-03 20:42 | 50.04224 | 8.56250 | 356 ft | 11 kts | 161° |
| 2026-05-03 20:42 | 50.04160 | 8.56290 | 356 ft | 8 kts | 143° |
| 2026-05-03 20:42 | 50.04155 | 8.56401 | 356 ft | 13 kts | 71° |
| 2026-05-03 20:42 | 50.04194 | 8.56561 | 357 ft | 17 kts | 70° |
| 2026-05-03 20:43 | 50.04243 | 8.56766 | 359 ft | 21 kts | 72° |
| 2026-05-03 20:43 | 50.04292 | 8.56978 | 360 ft | 20 kts | 70° |
| 2026-05-03 20:43 | 50.04343 | 8.57182 | 362 ft | 19 kts | 70° |
| 2026-05-03 20:43 | 50.04388 | 8.57376 | 364 ft | 19 kts | 70° |
| 2026-05-03 20:44 | 50.04435 | 8.57571 | 365 ft | 19 kts | 69° |
| 2026-05-03 20:44 | 50.04482 | 8.57769 | 366 ft | 20 kts | 70° |
| 2026-05-03 20:44 | 50.04534 | 8.57981 | 368 ft | 21 kts | 70° |
| 2026-05-03 20:44 | 50.04588 | 8.58209 | 370 ft | 23 kts | 70° |
| 2026-05-03 20:45 | 50.04642 | 8.58430 | 371 ft | 17 kts | 69° |
| 2026-05-03 20:45 | 50.04625 | 8.58571 | 372 ft | 12 kts | 153° |
| 2026-05-03 20:45 | 50.04537 | 8.58619 | 372 ft | 13 kts | 167° |
| 2026-05-03 20:45 | 50.04482 | 8.58567 | 371 ft | 5 kts | 249° |
| 2026-05-03 20:46 | 50.04481 | 8.58563 | 371 ft | 0 kts | 249° |
| 2026-05-03 20:47 | 50.04414 | 8.58289 | 369 ft | 69 kts | 250° |
| 2026-05-03 20:47 | 50.04153 | 8.57196 | 361 ft | 142 kts | 250° |
| 2026-05-03 20:47 | 50.03766 | 8.55581 | 730 ft | 169 kts | 248° |
| 2026-05-03 20:47 | 50.03364 | 8.53949 | 1685 ft | 161 kts | 248° |
| 2026-05-03 20:48 | 50.02995 | 8.52423 | 2598 ft | 155 kts | 249° |
| 2026-05-03 20:48 | 50.02606 | 8.50858 | 2908 ft | 154 kts | 243° |
| 2026-05-03 20:48 | 50.01978 | 8.49527 | 3157 ft | 154 kts | 226° |
| 2026-05-03 20:48 | 50.01100 | 8.48574 | 3402 ft | 159 kts | 211° |
| 2026-05-03 20:49 | 50.00013 | 8.48064 | 3656 ft | 167 kts | 197° |
| 2026-05-03 20:49 | 49.98847 | 8.47772 | 4230 ft | 175 kts | 195° |
| 2026-05-03 20:49 | 49.97662 | 8.47507 | 5104 ft | 173 kts | 194° |
| 2026-05-03 20:49 | 49.96496 | 8.47232 | 5901 ft | 174 kts | 196° |
| 2026-05-03 20:50 | 49.95324 | 8.46780 | 6671 ft | 176 kts | 200° |
| 2026-05-03 20:50 | 49.94170 | 8.46254 | 7432 ft | 178 kts | 201° |
| 2026-05-03 20:50 | 49.92993 | 8.45712 | 8224 ft | 178 kts | 203° |
| 2026-05-03 20:50 | 49.91945 | 8.44832 | 8984 ft | 175 kts | 222° |
| 2026-05-03 20:51 | 49.91164 | 8.43408 | 9707 ft | 177 kts | 240° |
| 2026-05-03 20:51 | 49.90734 | 8.41620 | 10392 ft | 181 kts | 258° |
| 2026-05-03 20:51 | 49.90726 | 8.39682 | 11043 ft | 188 kts | 277° |
| 2026-05-03 20:51 | 49.91296 | 8.37812 | 11571 ft | 206 kts | 310° |
| 2026-05-03 20:52 | 49.92627 | 8.36791 | 11960 ft | 234 kts | 350° |
| 2026-05-03 20:52 | 49.94306 | 8.37294 | 12350 ft | 260 kts | 21° |
| 2026-05-03 20:52 | 49.95968 | 8.38531 | 12813 ft | 277 kts | 25° |
| 2026-05-03 20:52 | 49.97745 | 8.39955 | 13293 ft | 296 kts | 26° |
| 2026-05-03 20:53 | 49.99609 | 8.41439 | 13754 ft | 314 kts | 25° |
| 2026-05-03 20:53 | 50.01624 | 8.43015 | 14186 ft | 332 kts | 25° |
| 2026-05-03 20:53 | 50.03729 | 8.44640 | 14595 ft | 350 kts | 25° |
| 2026-05-03 20:53 | 50.05979 | 8.46361 | 14992 ft | 367 kts | 25° |
| 2026-05-03 20:54 | 50.08295 | 8.48128 | 15711 ft | 374 kts | 25° |
| 2026-05-03 20:54 | 50.12999 | 8.51716 | 17170 ft | 384 kts | 24° |
| 2026-05-03 20:54 | 50.15392 | 8.53541 | 17844 ft | 390 kts | 24° |
| 2026-05-03 20:55 | 50.17857 | 8.55421 | 18532 ft | 395 kts | 24° |
| 2026-05-03 20:55 | 50.20293 | 8.57281 | 19447 ft | 392 kts | 24° |
| 2026-05-03 20:55 | 50.22731 | 8.59143 | 20277 ft | 392 kts | 25° |
| 2026-05-03 20:55 | 50.25177 | 8.61013 | 20943 ft | 397 kts | 25° |
| 2026-05-03 20:56 | 50.27674 | 8.62923 | 21585 ft | 401 kts | 25° |
| 2026-05-03 20:56 | 50.30171 | 8.64836 | 22214 ft | 406 kts | 25° |
| 2026-05-03 20:56 | 50.32729 | 8.66800 | 22844 ft | 410 kts | 25° |
| 2026-05-03 20:56 | 50.35283 | 8.68763 | 23459 ft | 415 kts | 25° |
| 2026-05-03 20:57 | 50.37897 | 8.70774 | 24070 ft | 419 kts | 25° |
| 2026-05-03 20:57 | 50.40496 | 8.72778 | 24660 ft | 423 kts | 25° |
| 2026-05-03 20:57 | 50.43157 | 8.74833 | 25258 ft | 428 kts | 25° |
| 2026-05-03 20:57 | 50.45810 | 8.76883 | 25822 ft | 432 kts | 25° |
| 2026-05-03 20:58 | 50.48494 | 8.78962 | 26391 ft | 435 kts | 25° |
| 2026-05-03 20:58 | 50.51238 | 8.81086 | 26916 ft | 440 kts | 25° |
| 2026-05-03 20:58 | 50.53979 | 8.83209 | 27453 ft | 443 kts | 25° |
| 2026-05-03 20:58 | 50.56725 | 8.85342 | 27955 ft | 447 kts | 25° |
| 2026-05-03 20:59 | 50.59536 | 8.87528 | 28443 ft | 450 kts | 25° |
| 2026-05-03 20:59 | 50.62322 | 8.89697 | 28887 ft | 454 kts | 26° |
| 2026-05-03 20:59 | 50.65172 | 8.91917 | 29313 ft | 457 kts | 25° |
| 2026-05-03 20:59 | 50.67991 | 8.94118 | 29745 ft | 460 kts | 25° |
| 2026-05-03 21:00 | 50.70889 | 8.96384 | 30153 ft | 463 kts | 26° |
| 2026-05-03 21:00 | 50.71847 | 8.97134 | 30284 ft | 464 kts | 26° |
| 2026-05-03 21:00 | 50.76684 | 9.00925 | 30913 ft | 469 kts | 26° |
| 2026-05-03 21:00 | 50.79586 | 9.03204 | 31263 ft | 471 kts | 26° |
| 2026-05-03 21:01 | 50.82502 | 9.05496 | 31697 ft | 472 kts | 26° |
| 2026-05-03 21:01 | 50.85434 | 9.07803 | 32206 ft | 470 kts | 26° |
| 2026-05-03 21:01 | 50.88367 | 9.10117 | 32724 ft | 468 kts | 26° |
| 2026-05-03 21:01 | 50.91235 | 9.12382 | 33221 ft | 466 kts | 26° |
| 2026-05-03 21:02 | 50.94138 | 9.14679 | 33644 ft | 466 kts | 26° |
| 2026-05-03 21:02 | 50.97023 | 9.16966 | 33999 ft | 467 kts | 26° |
| 2026-05-03 21:02 | 50.99910 | 9.19257 | 34327 ft | 468 kts | 26° |
| 2026-05-03 21:02 | 51.02821 | 9.21569 | 34649 ft | 470 kts | 26° |
| 2026-05-03 21:03 | 51.05756 | 9.23902 | 34910 ft | 471 kts | 25° |
| 2026-05-03 21:03 | 51.08745 | 9.26073 | 34967 ft | 472 kts | 21° |
| 2026-05-03 21:03 | 51.14829 | 9.29411 | 34975 ft | 471 kts | 13° |
| 2026-05-03 21:04 | 51.21176 | 9.31720 | 34975 ft | 471 kts | 10° |
| 2026-05-03 21:04 | 51.27588 | 9.33873 | 34976 ft | 470 kts | 10° |
| 2026-05-03 21:05 | 51.32881 | 9.35694 | 34975 ft | 471 kts | 10° |
| 2026-05-03 21:05 | 51.39283 | 9.37916 | 34970 ft | 471 kts | 10° |
| 2026-05-03 21:06 | 51.46717 | 9.40513 | 34969 ft | 471 kts | 10° |
| 2026-05-03 21:06 | 51.53128 | 9.42761 | 34967 ft | 471 kts | 10° |
| 2026-05-03 21:07 | 51.59507 | 9.45005 | 34957 ft | 471 kts | 10° |
| 2026-05-03 21:07 | 51.65889 | 9.47260 | 34957 ft | 471 kts | 10° |
| 2026-05-03 21:08 | 51.72261 | 9.49522 | 34947 ft | 471 kts | 10° |
| 2026-05-03 21:08 | 51.78598 | 9.51840 | 34948 ft | 472 kts | 13° |
| 2026-05-03 21:09 | 51.84848 | 9.55147 | 34945 ft | 473 kts | 20° |
| 2026-05-03 21:09 | 51.90762 | 9.59636 | 34937 ft | 473 kts | 26° |
| 2026-05-03 21:10 | 51.96594 | 9.64543 | 34931 ft | 473 kts | 26° |
| 2026-05-03 21:10 | 52.02394 | 9.69430 | 34494 ft | 466 kts | 27° |
| 2026-05-03 21:11 | 52.05268 | 9.71844 | 33818 ft | 466 kts | 27° |
| 2026-05-03 21:11 | 52.08109 | 9.74227 | 33222 ft | 465 kts | 27° |
| 2026-05-03 21:11 | 52.10950 | 9.76604 | 32569 ft | 464 kts | 27° |
| 2026-05-03 21:11 | 52.13839 | 9.79013 | 31821 ft | 465 kts | 26° |
| 2026-05-03 21:12 | 52.16725 | 9.81423 | 31026 ft | 467 kts | 26° |
| 2026-05-03 21:12 | 52.19570 | 9.83806 | 30396 ft | 465 kts | 26° |
| 2026-05-03 21:12 | 52.22453 | 9.86140 | 29901 ft | 459 kts | 24° |
| 2026-05-03 21:12 | 52.25354 | 9.88155 | 29385 ft | 453 kts | 20° |
| 2026-05-03 21:13 | 52.28326 | 9.89855 | 28832 ft | 449 kts | 16° |
| 2026-05-03 21:13 | 52.31299 | 9.91166 | 28279 ft | 444 kts | 9° |
| 2026-05-03 21:13 | 52.34300 | 9.91924 | 27754 ft | 439 kts | 5° |
| 2026-05-03 21:13 | 52.37336 | 9.92488 | 27189 ft | 436 kts | 4° |
| 2026-05-03 21:14 | 52.40310 | 9.93022 | 26205 ft | 436 kts | 4° |
| 2026-05-03 21:14 | 52.43326 | 9.93585 | 24929 ft | 438 kts | 4° |
| 2026-05-03 21:14 | 52.46302 | 9.94169 | 24161 ft | 426 kts | 5° |
| 2026-05-03 21:14 | 52.49167 | 9.94753 | 23793 ft | 415 kts | 5° |
| 2026-05-03 21:15 | 52.52017 | 9.95343 | 23358 ft | 408 kts | 5° |
| 2026-05-03 21:15 | 52.54771 | 9.95919 | 22965 ft | 402 kts | 4° |
| 2026-05-03 21:15 | 52.57559 | 9.96503 | 22565 ft | 400 kts | 5° |
| 2026-05-03 21:15 | 52.60280 | 9.97075 | 22177 ft | 398 kts | 4° |
| 2026-05-03 21:16 | 52.63020 | 9.97651 | 21790 ft | 395 kts | 4° |
| 2026-05-03 21:16 | 52.65702 | 9.98217 | 21419 ft | 392 kts | 5° |
| 2026-05-03 21:16 | 52.68412 | 9.98792 | 21030 ft | 389 kts | 4° |
| 2026-05-03 21:16 | 52.71062 | 9.99355 | 20633 ft | 386 kts | 4° |
| 2026-05-03 21:17 | 52.73723 | 9.99921 | 20254 ft | 383 kts | 4° |
| 2026-05-03 21:17 | 52.75465 | 10.00292 | 20017 ft | 381 kts | 4° |
| 2026-05-03 21:17 | 52.78933 | 10.01032 | 19497 ft | 376 kts | 4° |
| 2026-05-03 21:17 | 52.81523 | 10.01584 | 19125 ft | 373 kts | 4° |
| 2026-05-03 21:18 | 52.84055 | 10.02125 | 18759 ft | 370 kts | 4° |
| 2026-05-03 21:18 | 52.86606 | 10.02669 | 18402 ft | 367 kts | 3° |
| 2026-05-03 21:18 | 52.89119 | 10.03207 | 18065 ft | 365 kts | 3° |
| 2026-05-03 21:18 | 52.91623 | 10.03743 | 17708 ft | 362 kts | 3° |
| 2026-05-03 21:19 | 52.94089 | 10.04269 | 17364 ft | 361 kts | 3° |
| 2026-05-03 21:19 | 52.96586 | 10.04803 | 16935 ft | 359 kts | 4° |
| 2026-05-03 21:19 | 52.99036 | 10.05329 | 16518 ft | 357 kts | 3° |
| 2026-05-03 21:19 | 53.01473 | 10.05852 | 16166 ft | 356 kts | 4° |
| 2026-05-03 21:20 | 53.03934 | 10.06381 | 15752 ft | 356 kts | 4° |
| 2026-05-03 21:20 | 53.06369 | 10.06906 | 15316 ft | 355 kts | 4° |
| 2026-05-03 21:20 | 53.08830 | 10.07436 | 14885 ft | 354 kts | 4° |
| 2026-05-03 21:20 | 53.11240 | 10.07957 | 14473 ft | 353 kts | 4° |
| 2026-05-03 21:21 | 53.13691 | 10.08487 | 14058 ft | 351 kts | 4° |
| 2026-05-03 21:21 | 53.16064 | 10.09000 | 13666 ft | 349 kts | 4° |
| 2026-05-03 21:21 | 53.18473 | 10.09523 | 13276 ft | 346 kts | 4° |
| 2026-05-03 21:21 | 53.20858 | 10.10043 | 12876 ft | 344 kts | 4° |
| 2026-05-03 21:22 | 53.23198 | 10.10552 | 12485 ft | 342 kts | 4° |
| 2026-05-03 21:22 | 53.25527 | 10.11059 | 12103 ft | 339 kts | 4° |
| 2026-05-03 21:22 | 53.27889 | 10.11574 | 11722 ft | 337 kts | 4° |
| 2026-05-03 21:22 | 53.30194 | 10.12075 | 11332 ft | 335 kts | 4° |
| 2026-05-03 21:23 | 53.32482 | 10.12575 | 10935 ft | 334 kts | 4° |
| 2026-05-03 21:23 | 53.34784 | 10.13079 | 10535 ft | 332 kts | 4° |
| 2026-05-03 21:23 | 53.37048 | 10.13575 | 10142 ft | 331 kts | 4° |
| 2026-05-03 21:23 | 53.39304 | 10.14070 | 9955 ft | 320 kts | 4° |
| 2026-05-03 21:24 | 53.41473 | 10.14551 | 9876 ft | 307 kts | 4° |
| 2026-05-03 21:24 | 53.43565 | 10.15013 | 9553 ft | 304 kts | 4° |
| 2026-05-03 21:24 | 53.45643 | 10.15469 | 9234 ft | 300 kts | 4° |
| 2026-05-03 21:24 | 53.47685 | 10.15917 | 8904 ft | 296 kts | 3° |
| 2026-05-03 21:25 | 53.49720 | 10.16366 | 8616 ft | 292 kts | 3° |
| 2026-05-03 21:25 | 53.51707 | 10.16804 | 8327 ft | 290 kts | 3° |
| 2026-05-03 21:25 | 53.53715 | 10.17247 | 8026 ft | 288 kts | 3° |
| 2026-05-03 21:25 | 53.55697 | 10.17685 | 7704 ft | 286 kts | 3° |
| 2026-05-03 21:26 | 53.57641 | 10.18115 | 7417 ft | 284 kts | 3° |
| 2026-05-03 21:26 | 53.59594 | 10.18548 | 7100 ft | 282 kts | 3° |
| 2026-05-03 21:26 | 53.61560 | 10.18983 | 6902 ft | 289 kts | 2° |
| 2026-05-03 21:26 | 53.63548 | 10.19420 | 6896 ft | 291 kts | 3° |
| 2026-05-03 21:27 | 53.65556 | 10.19865 | 6883 ft | 291 kts | 3° |
| 2026-05-03 21:27 | 53.67562 | 10.20389 | 6878 ft | 294 kts | 11° |
| 2026-05-03 21:27 | 53.69346 | 10.22078 | 6874 ft | 298 kts | 45° |
| 2026-05-03 21:27 | 53.70522 | 10.24908 | 6889 ft | 301 kts | 61° |
| 2026-05-03 21:28 | 53.71475 | 10.28069 | 6880 ft | 303 kts | 63° |
| 2026-05-03 21:28 | 53.72425 | 10.31217 | 6793 ft | 295 kts | 62° |
| 2026-05-03 21:28 | 53.72641 | 10.31905 | 6755 ft | 293 kts | 62° |
| 2026-05-03 21:28 | 53.73567 | 10.34751 | 6561 ft | 286 kts | 60° |
| 2026-05-03 21:29 | 53.74760 | 10.37408 | 5933 ft | 293 kts | 35° |
| 2026-05-03 21:29 | 53.76601 | 10.38741 | 5278 ft | 285 kts | 359° |
| 2026-05-03 21:29 | 53.78439 | 10.38206 | 4644 ft | 265 kts | 324° |
| 2026-05-03 21:29 | 53.79659 | 10.36112 | 3993 ft | 243 kts | 288° |
| 2026-05-03 21:30 | 53.80086 | 10.33475 | 3725 ft | 230 kts | 280° |
| 2026-05-03 21:30 | 53.80600 | 10.30900 | 3263 ft | 234 kts | 283° |
| 2026-05-03 21:30 | 53.80710 | 10.28266 | 2935 ft | 224 kts | 253° |
| 2026-05-03 21:30 | 53.79937 | 10.26119 | 2946 ft | 213 kts | 224° |
| 2026-05-03 21:31 | 53.78727 | 10.24653 | 2964 ft | 222 kts | 216° |
| 2026-05-03 21:31 | 53.77344 | 10.23228 | 2965 ft | 237 kts | 214° |
| 2026-05-03 21:31 | 53.75912 | 10.21794 | 2965 ft | 239 kts | 214° |
| 2026-05-03 21:31 | 53.74493 | 10.20387 | 2965 ft | 239 kts | 214° |
| 2026-05-03 21:32 | 53.73105 | 10.18828 | 2864 ft | 237 kts | 222° |
| 2026-05-03 21:32 | 53.71932 | 10.16931 | 2585 ft | 235 kts | 230° |
| 2026-05-03 21:32 | 53.70890 | 10.14797 | 2270 ft | 234 kts | 233° |
| 2026-05-03 21:32 | 53.69885 | 10.12676 | 1960 ft | 233 kts | 232° |
| 2026-05-03 21:33 | 53.68847 | 10.10558 | 1650 ft | 233 kts | 232° |
| 2026-05-03 21:33 | 53.67834 | 10.08521 | 1336 ft | 223 kts | 231° |
| 2026-05-03 21:33 | 53.66886 | 10.06617 | 1050 ft | 200 kts | 232° |
| 2026-05-03 21:33 | 53.66053 | 10.04931 | 800 ft | 178 kts | 233° |
| 2026-05-03 21:34 | 53.65313 | 10.03431 | 622 ft | 157 kts | 232° |
| 2026-05-03 21:34 | 53.64653 | 10.02097 | 405 ft | 139 kts | 231° |
| 2026-05-03 21:34 | 53.64073 | 10.00928 | 226 ft | 124 kts | 230° |
| 2026-05-03 21:34 | 53.63543 | 9.99845 | 78 ft | 117 kts | 230° |
| 2026-05-03 21:35 | 53.63043 | 9.98833 | 45 ft | 104 kts | 231° |
| 2026-05-03 21:35 | 53.62661 | 9.98055 | 42 ft | 36 kts | 231° |
| 2026-05-03 21:35 | 53.62543 | 9.97821 | 41 ft | 15 kts | 219° |
| 2026-05-03 21:35 | 53.62456 | 9.97809 | 40 ft | 13 kts | 137° |
| 2026-05-03 21:36 | 53.62431 | 9.97945 | 41 ft | 12 kts | 81° |
| 2026-05-03 21:36 | 53.62452 | 9.98070 | 42 ft | 10 kts | 74° |
| 2026-05-03 21:36 | 53.62466 | 9.98249 | 42 ft | 20 kts | 81° |
| 2026-05-03 21:36 | 53.62498 | 9.98538 | 44 ft | 29 kts | 78° |
| 2026-05-03 21:37 | 53.62541 | 9.98929 | 45 ft | 37 kts | 79° |
| 2026-05-03 21:37 | 53.62597 | 9.99395 | 45 ft | 44 kts | 79° |
| 2026-05-03 21:37 | 53.62650 | 9.99795 | 47 ft | 20 kts | 55° |
| 2026-05-03 21:37 | 53.62773 | 9.99931 | 47 ft | 22 kts | 27° |
| 2026-05-03 21:38 | 53.62887 | 10.00064 | 47 ft | 15 kts | 46° |
| 2026-05-03 21:38 | 53.62898 | 10.00192 | 47 ft | 10 kts | 118° |
| 2026-05-03 21:38 | 53.62880 | 10.00242 | 48 ft | 0 kts | 123° |